createdAt,value
2022-12-06T00:02:01.259Z,12.10
2022-12-06T00:04:29.122Z,9.93
2022-12-06T00:06:58.356Z,10.03
2022-12-06T00:09:27.736Z,10.00
2022-12-06T00:11:57.436Z,11.37
2022-12-06T00:14:26.485Z,10.43
2022-12-06T00:16:54.367Z,11.97
2022-12-06T00:19:23.693Z,10.97
2022-12-06T00:21:51.551Z,12.47
2022-12-06T00:24:21.506Z,16.13
2022-12-06T00:26:50.175Z,12.90
2022-12-06T00:29:21.389Z,13.17
2022-12-06T00:31:49.423Z,13.27
2022-12-06T00:34:17.522Z,13.87
2022-12-06T00:36:45.399Z,14.30
2022-12-06T00:39:14.304Z,15.40
2022-12-06T00:41:42.518Z,14.77
2022-12-06T00:44:10.526Z,16.13
2022-12-06T00:46:40.274Z,15.30
2022-12-06T00:49:09.449Z,21.00
2022-12-06T00:51:37.995Z,20.50
2022-12-06T00:54:06.224Z,15.63
2022-12-06T00:56:35.872Z,20.93
2022-12-06T00:59:03.807Z,18.03
2022-12-06T01:01:33.296Z,18.17
2022-12-06T01:04:04.704Z,23.73
2022-12-06T01:06:34.665Z,16.97
2022-12-06T01:09:05.048Z,18.83
2022-12-06T01:11:43.260Z,18.73
2022-12-06T01:14:11.036Z,20.43
2022-12-06T01:16:39.759Z,21.67
2022-12-06T01:19:09.248Z,20.77
2022-12-06T01:21:37.024Z,22.63
2022-12-06T01:24:05.191Z,22.07
2022-12-06T01:26:34.587Z,23.93
2022-12-06T01:29:02.644Z,24.97
2022-12-06T01:31:37.730Z,24.10
2022-12-06T01:34:13.928Z,31.87
2022-12-06T01:36:41.748Z,25.23
2022-12-06T01:39:10.650Z,36.47
2022-12-06T01:41:39.887Z,37.10
2022-12-06T01:44:08.651Z,31.07
2022-12-06T01:46:39.406Z,32.37
2022-12-06T01:49:14.407Z,30.43
2022-12-06T01:51:45.199Z,26.60
2022-12-06T01:54:15.211Z,26.00
2022-12-06T01:56:43.401Z,27.20
2022-12-06T01:59:11.711Z,22.63
2022-12-06T02:01:40.529Z,23.53
2022-12-06T02:04:10.066Z,24.77
2022-12-06T02:06:38.497Z,22.37
2022-12-06T02:09:08.300Z,24.20
2022-12-06T02:11:36.419Z,23.23
2022-12-06T02:14:06.243Z,24.63
2022-12-06T02:16:44.035Z,20.13
2022-12-06T02:19:31.259Z,26.67
2022-12-06T02:22:07.311Z,25.63
2022-12-06T02:24:50.083Z,22.77
2022-12-06T02:27:31.363Z,23.73
2022-12-06T02:30:08.845Z,22.93
2022-12-06T02:32:44.073Z,22.23
2022-12-06T02:35:16.398Z,23.77
2022-12-06T02:37:48.127Z,21.07
2022-12-06T02:40:19.147Z,21.87
2022-12-06T02:42:49.479Z,20.07
2022-12-06T02:45:20.419Z,23.80
2022-12-06T02:47:50.679Z,17.03
2022-12-06T02:50:21.315Z,24.97
2022-12-06T02:52:51.077Z,18.73
2022-12-06T02:55:19.412Z,21.57
2022-12-06T02:57:48.828Z,20.87
2022-12-06T03:00:36.036Z,22.70
2022-12-06T03:03:30.853Z,22.40
2022-12-06T03:06:23.363Z,23.50
2022-12-06T03:08:58.196Z,21.57
2022-12-06T03:11:27.554Z,24.00
2022-12-06T03:13:57.925Z,21.20
2022-12-06T03:16:28.927Z,19.67
2022-12-06T03:19:01.012Z,20.97
2022-12-06T03:21:31.732Z,19.70
2022-12-06T03:23:59.732Z,18.87
2022-12-06T03:26:29.303Z,19.07
2022-12-06T03:29:00.639Z,22.03
2022-12-06T03:31:30.867Z,22.13
2022-12-06T03:34:03.165Z,24.23
2022-12-06T03:36:32.475Z,18.03
2022-12-06T03:39:03.219Z,24.63
2022-12-06T03:41:33.278Z,19.53
2022-12-06T03:44:01.156Z,23.90
2022-12-06T03:46:32.437Z,15.90
2022-12-06T03:49:03.421Z,19.13
2022-12-06T03:51:33.732Z,19.70
2022-12-06T03:54:04.248Z,21.40
2022-12-06T03:56:32.461Z,17.33
2022-12-06T03:59:00.358Z,21.43
2022-12-06T04:01:28.303Z,19.80
2022-12-06T04:03:56.205Z,23.10
2022-12-06T04:06:25.444Z,20.47
2022-12-06T04:08:53.536Z,24.03
2022-12-06T04:11:21.741Z,21.83
2022-12-06T04:13:49.514Z,20.67
2022-12-06T04:16:35.055Z,17.53
2022-12-06T04:19:02.841Z,27.20
2022-12-06T04:21:49.461Z,28.07
2022-12-06T04:24:17.244Z,25.67
2022-12-06T04:26:44.963Z,19.37
2022-12-06T04:29:30.244Z,22.63
2022-12-06T04:32:15.443Z,24.17
2022-12-06T04:35:00.871Z,28.87
2022-12-06T04:37:47.504Z,33.30
2022-12-06T04:40:15.384Z,21.03
2022-12-06T04:43:00.440Z,27.40
2022-12-06T04:45:28.241Z,31.07
2022-12-06T04:47:56.117Z,43.63
2022-12-06T04:50:23.870Z,45.40
2022-12-06T04:52:53.033Z,30.67
2022-12-06T04:55:20.831Z,36.87
2022-12-06T04:57:48.614Z,50.33
2022-12-06T05:00:17.108Z,50.27
2022-12-06T05:02:44.895Z,24.67
2022-12-06T05:05:12.833Z,61.93
2022-12-06T05:07:40.662Z,39.60
2022-12-06T05:10:10.606Z,40.97
2022-12-06T05:12:38.368Z,28.57
2022-12-06T05:15:06.679Z,37.07
2022-12-06T05:17:34.403Z,49.73
2022-12-06T05:20:02.447Z,76.67
2022-12-06T05:22:33.681Z,44.50
2022-12-06T05:25:01.475Z,35.33
2022-12-06T05:27:35.671Z,58.80
2022-12-06T05:30:04.577Z,68.80
2022-12-06T05:32:32.434Z,61.00
2022-12-06T05:35:00.257Z,37.53
2022-12-06T05:37:28.009Z,41.23
2022-12-06T05:39:55.889Z,74.33
2022-12-06T05:42:23.701Z,30.57
2022-12-06T05:44:53.016Z,88.00
2022-12-06T05:47:20.865Z,62.43
2022-12-06T05:49:48.621Z,21.77
2022-12-06T05:52:16.506Z,121.57
2022-12-06T05:54:44.287Z,33.03
2022-12-06T05:57:12.124Z,29.60
2022-12-06T05:59:39.902Z,25.37
2022-12-06T06:02:09.613Z,61.40
2022-12-06T06:04:37.497Z,41.73
2022-12-06T06:07:05.280Z,39.17
2022-12-06T06:09:33.092Z,24.33
2022-12-06T06:12:00.830Z,26.13
2022-12-06T06:14:28.606Z,83.90
2022-12-06T06:16:56.534Z,130.13
2022-12-06T06:19:26.028Z,21.87
2022-12-06T06:21:53.827Z,24.43
2022-12-06T06:24:21.825Z,32.10
2022-12-06T06:26:56.559Z,33.53
2022-12-06T06:29:25.187Z,34.70
2022-12-06T06:31:53.038Z,34.47
2022-12-06T06:34:20.959Z,33.73
2022-12-06T06:36:50.116Z,40.23
2022-12-06T06:39:18.355Z,31.13
2022-12-06T06:41:46.610Z,49.90
2022-12-06T06:44:14.985Z,26.80
2022-12-06T06:46:42.728Z,26.70
2022-12-06T06:49:10.540Z,28.17
2022-12-06T06:51:38.326Z,26.90
2022-12-06T06:54:07.580Z,34.97
2022-12-06T06:56:35.398Z,23.63
2022-12-06T06:59:03.195Z,25.40
2022-12-06T07:01:31.105Z,25.07
2022-12-06T07:03:59.028Z,26.73
2022-12-06T07:06:26.879Z,22.97
2022-12-06T07:08:54.640Z,29.63
2022-12-06T07:11:24.308Z,28.03
2022-12-06T07:13:52.906Z,27.80
2022-12-06T07:16:21.206Z,48.37
2022-12-06T07:18:49.231Z,41.40
2022-12-06T07:21:17.852Z,37.63
2022-12-06T07:23:45.933Z,23.50
2022-12-06T07:26:15.665Z,51.93
2022-12-06T07:28:46.012Z,33.27
2022-12-06T07:31:15.510Z,58.00
2022-12-06T07:33:44.264Z,69.53
2022-12-06T07:36:13.808Z,37.67
2022-12-06T07:38:42.555Z,45.73
2022-12-06T07:41:26.200Z,63.27
2022-12-06T07:44:15.165Z,58.30
2022-12-06T07:46:43.403Z,32.77
2022-12-06T07:49:11.411Z,86.17
2022-12-06T07:51:40.090Z,54.67
2022-12-06T07:54:07.973Z,30.83
2022-12-06T07:56:35.790Z,41.10
2022-12-06T07:59:05.004Z,27.30
2022-12-06T08:01:33.195Z,45.30
2022-12-06T08:04:01.280Z,41.77
2022-12-06T08:06:29.242Z,36.83
2022-12-06T08:08:56.987Z,30.60
2022-12-06T08:11:25.021Z,24.60
2022-12-06T08:13:52.805Z,24.93
2022-12-06T08:16:21.983Z,25.47
2022-12-06T08:18:49.912Z,26.43
2022-12-06T08:21:18.628Z,26.77
2022-12-06T08:23:46.417Z,26.03
2022-12-06T08:26:18.732Z,25.77
2022-12-06T08:28:46.697Z,26.67
2022-12-06T08:31:16.361Z,27.07
2022-12-06T08:33:45.605Z,28.50
2022-12-06T08:36:15.304Z,26.37
2022-12-06T08:38:43.460Z,30.73
2022-12-06T08:41:32.221Z,27.37
2022-12-06T08:44:01.276Z,24.60
2022-12-06T08:46:30.092Z,25.73
2022-12-06T08:48:59.299Z,33.37
2022-12-06T08:51:27.166Z,40.80
2022-12-06T08:53:55.879Z,28.87
2022-12-06T08:56:24.773Z,43.20
2022-12-06T08:58:53.901Z,35.77
2022-12-06T09:01:24.133Z,33.10
2022-12-06T09:03:52.013Z,27.57
2022-12-06T09:06:23.336Z,33.50
2022-12-06T09:08:51.451Z,28.50
2022-12-06T09:11:20.496Z,41.57
2022-12-06T09:13:48.270Z,32.00
2022-12-06T09:16:17.625Z,29.50
2022-12-06T09:18:46.593Z,38.03
2022-12-06T09:21:16.093Z,33.27
2022-12-06T09:23:45.501Z,30.43
2022-12-06T09:26:13.790Z,30.43
2022-12-06T09:28:43.390Z,31.27
2022-12-06T09:31:11.606Z,35.83
2022-12-06T09:33:39.719Z,29.37
2022-12-06T09:36:11.168Z,28.47
2022-12-06T09:38:40.533Z,32.13
2022-12-06T09:41:28.996Z,28.40
2022-12-06T09:44:06.509Z,26.43
2022-12-06T09:46:50.244Z,27.03
2022-12-06T09:49:29.884Z,26.03
2022-12-06T09:52:23.929Z,23.13
2022-12-06T09:55:01.111Z,27.60
2022-12-06T09:57:35.491Z,23.80
2022-12-06T10:00:11.365Z,19.27
2022-12-06T10:03:10.569Z,17.83
2022-12-06T10:05:48.080Z,19.23
2022-12-06T10:08:27.109Z,17.07
2022-12-06T10:10:59.291Z,19.60
2022-12-06T10:13:42.230Z,16.50
2022-12-06T10:16:15.360Z,15.80
2022-12-06T10:18:54.591Z,14.23
2022-12-06T10:21:29.117Z,17.23
2022-12-06T10:24:06.962Z,14.97
2022-12-06T10:26:40.347Z,13.17
2022-12-06T10:29:18.299Z,17.73
2022-12-06T10:31:55.387Z,13.23
2022-12-06T10:34:27.184Z,15.80
2022-12-06T10:37:00.181Z,13.53
2022-12-06T10:39:32.777Z,14.67
2022-12-06T10:42:03.593Z,17.00
2022-12-06T10:44:36.283Z,19.77
2022-12-06T10:47:07.094Z,14.63
2022-12-06T10:49:47.582Z,13.87
2022-12-06T10:52:21.717Z,14.83
2022-12-06T10:54:58.025Z,12.73
2022-12-06T10:57:31.302Z,14.30
2022-12-06T11:00:04.685Z,13.60
2022-12-06T11:02:39.765Z,14.57
2022-12-06T11:05:16.202Z,11.43
2022-12-06T11:07:46.762Z,12.07
2022-12-06T11:10:21.184Z,14.27
2022-12-06T11:12:50.368Z,14.63
2022-12-06T11:15:24.445Z,13.13
2022-12-06T11:18:00.858Z,9.97
2022-12-06T11:20:31.310Z,12.30
2022-12-06T11:23:07.157Z,10.17
2022-12-06T11:25:42.036Z,12.20
2022-12-06T11:28:21.767Z,11.90
2022-12-06T11:30:53.236Z,12.40
2022-12-06T11:33:23.203Z,9.80
2022-12-06T11:35:51.225Z,10.03
2022-12-06T11:38:19.213Z,10.93
2022-12-06T11:40:48.180Z,10.30
2022-12-06T11:43:18.721Z,10.50
2022-12-06T11:45:47.273Z,13.97
2022-12-06T11:48:18.085Z,11.33
2022-12-06T11:50:47.974Z,10.13
2022-12-06T11:53:25.217Z,12.93
2022-12-06T11:55:54.950Z,9.17
2022-12-06T11:58:28.052Z,11.07
2022-12-06T12:00:58.580Z,8.03
2022-12-06T12:03:32.933Z,9.47
2022-12-06T12:06:25.020Z,10.07
2022-12-06T12:08:56.810Z,7.93
2022-12-06T12:11:27.547Z,9.73
2022-12-06T12:13:57.556Z,9.80
2022-12-06T12:16:27.225Z,9.90
2022-12-06T12:19:01.845Z,9.73
2022-12-06T12:21:32.530Z,9.13
2022-12-06T12:24:00.562Z,7.00
2022-12-06T12:26:37.560Z,7.40
2022-12-06T12:29:13.726Z,13.07
2022-12-06T12:31:48.077Z,8.73
2022-12-06T12:34:21.450Z,12.00
2022-12-06T12:36:51.596Z,12.10
2022-12-06T12:39:30.195Z,8.43
2022-12-06T12:41:58.124Z,9.60
2022-12-06T12:44:37.580Z,10.63
2022-12-06T12:47:16.789Z,7.50
2022-12-06T12:50:01.013Z,7.70
2022-12-06T12:52:30.626Z,10.73
2022-12-06T12:55:04.235Z,5.80
2022-12-06T12:57:32.147Z,6.30
2022-12-06T12:59:59.897Z,7.77
2022-12-06T13:02:30.147Z,10.80
2022-12-06T13:05:32.718Z,7.20
2022-12-06T13:07:50.998Z,8.27
2022-12-06T13:10:22.375Z,6.97
2022-12-06T13:12:51.950Z,5.60
2022-12-06T13:15:22.318Z,5.83
2022-12-06T13:17:59.270Z,8.43
2022-12-06T13:20:31.689Z,6.53
2022-12-06T13:23:01.732Z,5.53
2022-12-06T13:25:29.649Z,5.27
2022-12-06T13:28:04.983Z,6.33
2022-12-06T13:30:35.331Z,8.37
2022-12-06T13:33:06.043Z,4.73
2022-12-06T13:35:38.556Z,6.60
2022-12-06T13:38:26.798Z,7.90
2022-12-06T13:40:55.403Z,5.97
2022-12-06T13:43:57.148Z,8.47
2022-12-06T13:46:30.237Z,6.60
2022-12-06T13:48:59.090Z,7.63
2022-12-06T13:51:45.933Z,6.40
2022-12-06T13:54:32.236Z,9.07
2022-12-06T13:57:01.325Z,8.50
2022-12-06T13:59:39.184Z,7.83
2022-12-06T14:02:53.069Z,7.07
2022-12-06T14:08:32.770Z,7.87
2022-12-06T14:11:15.872Z,9.17
2022-12-06T14:13:45.801Z,8.27
2022-12-06T14:16:19.972Z,8.03
2022-12-06T14:18:47.953Z,4.40
2022-12-06T14:21:22.360Z,5.03
2022-12-06T14:23:51.572Z,6.60
2022-12-06T14:26:24.953Z,6.67
2022-12-06T14:28:54.353Z,4.93
2022-12-06T14:31:25.654Z,5.30
2022-12-06T14:33:54.616Z,6.90
2022-12-06T14:36:25.926Z,5.60
2022-12-06T14:39:01.439Z,5.63
2022-12-06T14:41:52.284Z,5.37
2022-12-06T14:44:21.387Z,5.03
2022-12-06T14:46:50.257Z,5.73
2022-12-06T14:49:37.951Z,5.43
2022-12-06T14:52:18.521Z,6.63
2022-12-06T14:54:48.259Z,4.93
2022-12-06T14:57:26.859Z,5.40
2022-12-06T15:00:15.159Z,5.10
2022-12-06T15:03:01.030Z,7.17
2022-12-06T15:05:37.211Z,4.87
2022-12-06T15:08:30.166Z,6.97
2022-12-06T15:11:01.083Z,5.93
2022-12-06T15:13:29.222Z,4.97
2022-12-06T15:16:08.138Z,6.67
2022-12-06T15:18:38.256Z,9.73
2022-12-06T15:21:12.477Z,9.73
2022-12-06T15:23:43.008Z,6.67
2022-12-06T15:26:13.288Z,8.93
2022-12-06T15:28:41.244Z,9.30
2022-12-06T15:31:17.465Z,6.00
2022-12-06T15:33:46.019Z,7.90
2022-12-06T15:36:17.940Z,8.27
2022-12-06T15:38:46.562Z,6.07
2022-12-06T15:41:17.631Z,10.37
2022-12-06T15:43:46.032Z,9.73
2022-12-06T15:46:18.631Z,19.40
2022-12-06T15:48:46.571Z,13.37
2022-12-06T15:51:20.311Z,13.37
2022-12-06T15:53:49.824Z,13.63
2022-12-06T15:56:21.105Z,16.53
2022-12-06T15:58:49.367Z,11.73
2022-12-06T16:01:19.627Z,45.33
2022-12-06T16:03:47.693Z,23.53
2022-12-06T16:06:17.028Z,8.27
2022-12-06T16:08:45.642Z,11.70
2022-12-06T16:11:15.995Z,10.33
2022-12-06T16:13:45.600Z,11.03
2022-12-06T16:16:13.963Z,12.33
2022-12-06T16:18:41.852Z,40.40
2022-12-06T16:21:20.630Z,25.53
2022-12-06T16:24:13.068Z,14.27
2022-12-06T16:26:44.158Z,9.93
2022-12-06T16:29:14.840Z,10.30
2022-12-06T16:31:42.715Z,11.53
2022-12-06T16:34:11.020Z,11.67
2022-12-06T16:36:54.490Z,10.13
2022-12-06T16:39:22.784Z,11.53
2022-12-06T16:41:50.592Z,11.03
2022-12-06T16:44:19.901Z,10.63
2022-12-06T16:46:47.747Z,14.30
2022-12-06T16:52:06.806Z,11.10
2022-12-06T16:54:34.709Z,10.13
2022-12-06T16:57:02.654Z,14.13
2022-12-06T16:59:31.899Z,12.00
2022-12-06T17:02:00.392Z,12.43
2022-12-06T17:04:30.662Z,15.10
2022-12-06T17:06:58.591Z,13.80
2022-12-06T17:09:26.695Z,13.17
2022-12-06T17:12:06.022Z,13.37
2022-12-06T17:14:36.088Z,16.93
2022-12-06T17:17:04.416Z,14.77
2022-12-06T17:19:33.568Z,17.53
2022-12-06T17:22:02.298Z,16.37
2022-12-06T17:24:30.576Z,12.60
2022-12-06T17:26:58.983Z,14.07
2022-12-06T17:29:28.423Z,13.17
2022-12-06T17:31:58.059Z,13.10
2022-12-06T17:34:26.439Z,19.83
2022-12-06T17:36:55.057Z,15.63
2022-12-06T17:39:22.946Z,13.33
2022-12-06T17:42:08.063Z,14.23
2022-12-06T17:44:36.106Z,13.30
2022-12-06T17:47:05.669Z,12.20
2022-12-06T17:49:35.833Z,14.27
2022-12-06T17:52:03.775Z,16.63
2022-12-06T17:54:31.699Z,13.90
2022-12-06T17:56:59.567Z,12.30
2022-12-06T17:59:30.267Z,11.53
2022-12-06T18:02:16.431Z,12.17
2022-12-06T18:04:47.313Z,11.27
2022-12-06T18:07:15.734Z,11.30
2022-12-06T18:09:43.557Z,12.33
2022-12-06T18:12:12.854Z,12.17
2022-12-06T18:14:40.747Z,14.53
2022-12-06T18:17:08.795Z,11.13
2022-12-06T18:19:36.716Z,12.37
2022-12-06T18:22:05.843Z,10.40
2022-12-06T18:24:35.856Z,10.87
2022-12-06T18:27:04.931Z,9.27
2022-12-06T18:29:32.980Z,11.50
2022-12-06T18:32:00.834Z,8.10
2022-12-06T18:34:28.662Z,13.40
2022-12-06T18:36:56.463Z,15.07
2022-12-06T18:39:25.617Z,9.83
2022-12-06T18:41:54.118Z,15.10
2022-12-06T18:44:22.035Z,8.93
2022-12-06T18:46:49.833Z,14.50
2022-12-06T18:49:17.742Z,9.27
2022-12-06T18:51:45.607Z,9.87
2022-12-06T18:54:14.628Z,9.37
2022-12-06T18:56:43.834Z,11.10
2022-12-06T18:59:12.890Z,8.80
2022-12-06T19:01:41.852Z,9.17
2022-12-06T19:04:13.116Z,9.03
2022-12-06T19:06:41.199Z,7.87
2022-12-06T19:09:10.461Z,9.53
2022-12-06T19:11:38.825Z,9.87
2022-12-06T19:14:08.189Z,9.27
2022-12-06T19:16:37.774Z,9.10
2022-12-06T19:19:11.438Z,9.43
2022-12-06T19:21:43.746Z,12.10
2022-12-06T19:24:12.653Z,8.53
2022-12-06T19:26:40.508Z,12.97
2022-12-06T19:29:10.755Z,7.97
2022-12-06T19:31:38.728Z,8.30
2022-12-06T19:34:06.723Z,10.93
2022-12-06T19:36:34.511Z,8.97
2022-12-06T19:39:04.306Z,8.63
2022-12-06T19:41:32.115Z,9.50
2022-12-06T19:44:17.116Z,10.17
2022-12-06T19:46:47.447Z,10.63
2022-12-06T19:49:17.582Z,9.80
2022-12-06T19:51:46.720Z,10.50
2022-12-06T19:54:16.606Z,9.47
2022-12-06T19:56:44.368Z,9.77
2022-12-06T19:59:12.546Z,12.37
2022-12-06T20:01:41.754Z,9.53
2022-12-06T20:04:14.828Z,11.23
2022-12-06T20:06:42.666Z,11.90
2022-12-06T20:09:10.429Z,10.53
2022-12-06T20:11:56.606Z,11.27
2022-12-06T20:14:24.660Z,9.87
2022-12-06T20:16:52.684Z,13.37
2022-12-06T20:19:22.296Z,10.73
2022-12-06T20:21:50.499Z,13.77
2022-12-06T20:24:19.932Z,13.20
2022-12-06T20:26:49.228Z,15.77
2022-12-06T20:29:17.880Z,11.80
2022-12-06T20:31:46.004Z,9.80
2022-12-06T20:34:15.696Z,12.27
2022-12-06T20:36:45.279Z,13.03
2022-12-06T20:39:20.831Z,11.07
2022-12-06T20:41:49.438Z,15.03
2022-12-06T20:44:17.741Z,10.73
2022-12-06T20:46:45.671Z,9.43
2022-12-06T20:49:14.043Z,11.57
2022-12-06T20:51:42.470Z,12.20
2022-12-06T20:54:12.805Z,11.60
2022-12-06T20:56:42.401Z,11.53
2022-12-06T20:59:10.925Z,13.03
2022-12-06T21:01:40.548Z,11.43
2022-12-06T21:04:09.268Z,13.43
2022-12-06T21:06:37.105Z,13.00
2022-12-06T21:09:05.048Z,11.53
2022-12-06T21:11:34.287Z,14.30
2022-12-06T21:14:03.301Z,14.93
2022-12-06T21:16:32.087Z,18.27
2022-12-06T21:19:01.674Z,14.57
2022-12-06T21:21:32.276Z,16.20
2022-12-06T21:24:00.579Z,15.57
2022-12-06T21:26:28.995Z,17.50
2022-12-06T21:28:58.137Z,14.17
2022-12-06T21:31:27.897Z,14.67
2022-12-06T21:33:56.079Z,18.77
2022-12-06T21:36:24.391Z,15.07
2022-12-06T21:38:52.332Z,22.00
2022-12-06T21:41:20.173Z,21.60
2022-12-06T21:43:48.203Z,19.63
2022-12-06T21:46:20.066Z,17.27
2022-12-06T21:48:51.339Z,18.90
2022-12-06T21:51:19.532Z,23.37
2022-12-06T21:53:47.277Z,20.80
2022-12-06T21:56:17.147Z,21.90
2022-12-06T21:58:45.000Z,22.77
2022-12-06T22:01:15.305Z,22.90
2022-12-06T22:03:44.727Z,24.00
2022-12-06T22:06:13.712Z,26.87
2022-12-06T22:08:43.083Z,24.53
2022-12-06T22:11:12.430Z,23.30
2022-12-06T22:13:40.300Z,28.17
2022-12-06T22:16:10.441Z,26.43
2022-12-06T22:18:44.778Z,28.27
2022-12-06T22:21:17.170Z,26.93
2022-12-06T22:23:45.156Z,29.10
2022-12-06T22:26:15.544Z,29.97
2022-12-06T22:28:43.743Z,31.77
2022-12-06T22:31:12.949Z,29.23
2022-12-06T22:33:40.868Z,33.03
2022-12-06T22:36:09.910Z,31.30
2022-12-06T22:38:39.057Z,30.30
2022-12-06T22:41:07.618Z,28.80
2022-12-06T22:43:36.188Z,32.50
2022-12-06T22:46:05.177Z,30.50
2022-12-06T22:48:33.164Z,31.87
2022-12-06T22:51:11.796Z,31.30
2022-12-06T22:53:41.661Z,33.83
2022-12-06T22:56:09.762Z,33.77
2022-12-06T22:58:37.729Z,36.37
2022-12-06T23:01:16.537Z,35.00
2022-12-06T23:03:45.180Z,33.37
2022-12-06T23:06:13.678Z,34.37
2022-12-06T23:08:43.197Z,34.23
2022-12-06T23:11:14.333Z,33.87
2022-12-06T23:13:42.251Z,34.03
2022-12-06T23:16:12.322Z,36.27
2022-12-06T23:18:40.308Z,34.77
2022-12-06T23:21:11.449Z,35.47
2022-12-06T23:23:39.842Z,34.57
2022-12-06T23:26:11.120Z,33.90
2022-12-06T23:28:39.399Z,37.90
2022-12-06T23:31:11.057Z,36.30
2022-12-06T23:33:38.960Z,36.30
2022-12-06T23:36:09.315Z,36.10
2022-12-06T23:38:37.607Z,33.47
2022-12-06T23:41:06.783Z,38.63
2022-12-06T23:43:36.459Z,35.53
2022-12-06T23:46:07.717Z,38.83
2022-12-06T23:48:36.077Z,32.70
2022-12-06T23:51:05.673Z,36.13
2022-12-06T23:53:33.984Z,37.80
2022-12-06T23:56:03.078Z,33.03
2022-12-06T23:58:31.082Z,38.10
